• Join FlightAware (Why Join?)
  • Login
  • US Flag 
02:01PM EDT


 

Airport Tracker/Info


-or-


 

Live Flight TrackerFlight Track Log ✈ ASQ5958 ✈ 07-May-2013 ✈ KSYR - KORD

Flight Track Log - Related Links

Times and Time Zones

All times are in EDT time to prevent confusion due to time zone crossing. See the ASQ5958 flight status page for this flight to view local times or setup timezone preferences in your user account.

Time Position Orientation Groundspeed Altitude Reporting Facility
EDT Latitude Longitude Course Direction KTS MPH feet Rate Location/Type
12:42PM 43.0925 -76.0825 286° West 175 201 1,500  Level Boston Center
12:43PM 43.0786 -76.0619 133° Southeast 181 208 2,200 2,220 Climbing Boston Center
12:44PM 43.0228 -76.0472 169° South 222 255 4,700 2,040 Climbing Boston Center
12:46PM 43.0214 -76.2633 270° West 243 280 9,300 1,860 Climbing Cleveland Center
12:47PM 43.0194 -76.3744 269° West 274 315 11,100 1,680 Climbing Cleveland Center
12:47PM 43.0167 -76.4000 262° West 300 345 11,700 1,500 Climbing Toronto Center
12:48PM 43.2469 -76.7573 286° West  Level FlightAware Approximate
12:48PM 43.0214 -76.4936 274° West 297 342 12,600  Level Cleveland Center
12:49PM 43.0239 -76.6183 272° West 319 367 14,100 1,500 Climbing Cleveland Center
12:50PM 43.0261 -76.7489 271° West 334 384 15,700 1,380 Climbing Cleveland Center
12:51PM 43.0306 -76.8822 273° West 347 399 16,900 1,080 Climbing Cleveland Center
12:52PM 43.0328 -77.0214 271° West 359 413 17,900 1,080 Climbing Cleveland Center
12:53PM 43.0350 -77.1633 271° West 372 428 19,100 1,200 Climbing Cleveland Center
12:54PM 43.0372 -77.3108 271° West 377 434 20,300 1,140 Climbing Cleveland Center
12:55PM 43.0600 -77.4575 282° West 390 449 21,400 1,140 Climbing Cleveland Center
12:56PM 43.0617 -77.6050 271° West 390 449 22,600 1,200 Climbing Cleveland Center
12:57PM 43.0719 -77.7581 275° West 395 455 23,900 1,200 Climbing Cleveland Center
12:58PM 43.1106 -77.9014 290° West 401 461 25,000 1,140 Climbing Cleveland Center
12:59PM 43.1494 -78.0450 290° West 401 461 26,200 1,200 Climbing Cleveland Center
01:00PM 43.1547 -78.1956 273° West 401 461 27,400 1,080 Climbing Cleveland Center
01:01PM 43.1492 -78.3436 267° West 395 455 28,400 960 Climbing Cleveland Center
01:02PM 43.1458 -78.4947 268° West 395 455 29,400 900 Climbing Cleveland Center
01:03PM 43.1400 -78.6458 267° West 405 466 30,300 900 Climbing Cleveland Center
01:04PM 43.1364 -78.7967 268° West 405 466 31,300 1,020 Climbing Cleveland Center
01:05PM 43.1167 -78.9000 255° West 400 460 32,300 1,020 Climbing Toronto Center
01:06PM 43.1167 -79.0667 270° West 410 472 33,300 960 Climbing Toronto Center
01:07PM 43.1167 -79.2167 270° West 410 472 34,300 960 Climbing Toronto Center
01:08PM 43.1000 -79.3833 262° West 400 460 35,300 840 Climbing Toronto Center
01:09PM 43.1000 -79.5500 270° West 400 460 36,000 300 Climbing Toronto Center
01:10PM 43.1000 -79.6833 270° West 410 472 36,000  Level Toronto Center
01:11PM 43.0833 -79.8333 261° West 430 495 36,000  Level Toronto Center
01:12PM 43.0833 -80.0167 270° West 450 518 36,000  Level Toronto Center
01:13PM 43.0667 -80.2000 263° West 460 529 36,000  Level Toronto Center
01:14PM 43.0667 -80.3833 270° West 460 529 36,000  Level Toronto Center
01:15PM 43.0667 -80.5500 270° West 460 529 36,000  Level Toronto Center
01:16PM 43.0500 -80.7000 261° West 450 518 36,000  Level Toronto Center
01:17PM 43.0333 -80.8833 263° West 450 518 36,000  Level Toronto Center
01:18PM 43.0167 -81.0667 263° West 450 518 36,000  Level Toronto Center
01:19PM 43.0167 -81.2333 270° West 450 518 36,000  Level Toronto Center
01:20PM 43.0167 -81.4167 270° West 450 518 36,000  Level Toronto Center
01:21PM 43.0167 -81.5667 270° West 450 518 36,000  Level Toronto Center
01:22PM 43.0167 -81.7500 270° West 450 518 36,000  Level Toronto Center
01:23PM 43.0000 -81.9167 262° West 450 518 36,000  Level Toronto Center
01:24PM 43.0000 -82.1000 270° West 450 518 36,000  Level Toronto Center
01:25PM 43.0000 -82.2500 270° West 450 518 36,000  Level Toronto Center
01:26PM 43.0000 -82.4167 270° West 450 518 36,000  Level Toronto Center
01:27PM 43.0000 -82.6000 270° West 460 529 36,000  Level Toronto Center
01:28PM 43.0008 -82.7322 271° West 458 527 36,000  Level Cleveland Center
01:29PM 42.9953 -82.9053 268° West 458 527 36,000  Level Cleveland Center
01:30PM 42.9897 -83.0808 268° West 458 527 36,000  Level Cleveland Center
01:31PM 42.9858 -83.2511 268° West 458 527 36,000  Level Cleveland Center
01:32PM 42.9775 -83.4239 266° West 458 527 36,000 -300 Level Cleveland Center
01:33PM 42.9733 -83.5939 268° West 458 527 35,500 -780 Descending Cleveland Center
01:34PM 42.9622 -83.7667 265° West 458 527 34,500 -1,080 Descending Cleveland Center
01:35PM 42.9472 -83.9331 263° West 458 527 33,400 -1,080 Descending Cleveland Center
01:36PM 42.9319 -84.0969 263° West 453 521 32,400 -720 Descending Cleveland Center
01:37PM 42.9142 -84.2603 262° West 448 516 32,000 -240 Descending Cleveland Center
01:38PM 42.9003 -84.4233 263° West 433 498 32,000  Level Chicago Center
01:39PM 42.8808 -84.6200 262° West 436 502 32,000  Level Chicago Center
01:40PM 42.8642 -84.7825 262° West 435 501 32,000  Level Chicago Center
01:41PM 42.8475 -84.9464 262° West 437 503 32,000  Level Chicago Center
01:42PM 42.8294 -85.1133 262° West 441 507 32,000 -300 Level Chicago Center
01:43PM 42.8103 -85.2836 261° West 451 519 31,400 -780 Descending Chicago Center
01:44PM 42.7906 -85.4567 261° West 460 529 30,500 -960 Descending Chicago Center
01:45PM 42.7647 -85.6169 258° West 441 507 29,500 -1,080 Descending Chicago Center
01:46PM 42.7297 -85.8114 256° West 437 503 28,300 -1,140 Descending Chicago Center
01:47PM 42.6994 -85.9800 256° West 451 519 27,200 -1,020 Descending Chicago Center
01:48PM 42.6678 -86.1514 256° West 462 532 26,200 -840 Descending Chicago Center
01:49PM 42.6367 -86.3172 256° West 452 520 25,500 -840 Descending Chicago Center
01:50PM 42.6064 -86.4783 256° West 441 507 24,500 -1,200 Descending Chicago Center
01:51PM 42.5772 -86.6342 256° West 431 496 23,100 -1,920 Descending Chicago Center
01:52PM 42.5403 -86.8017 253° West 418 481 20,600 -2,640 Descending Chicago Center
01:53PM 42.5028 -86.9408 250° West 400 460 17,700 -3,180 Descending Chicago Center
01:54PM 42.4614 -87.0867 249° West 380 437 14,100 -3,480 Descending Chicago Center
01:55PM 42.4256 -87.2178 250° West 374 430 10,600 -2,040 Descending Chicago Center
01:56PM 42.3906 -87.3461 250° West 367 422 10,000 -300 Descending Chicago Center
01:58PM 42.3536 -87.4792 249° West 354 407 10,000  Level Chicago Center
01:59PM 42.2914 -87.5828 231° Southwest 365 420 10,000  Level Chicago Center
02:00PM 42.2133 -87.6675 219° Southwest 362 417 10,000  Level Chicago Center
02:01PM 42.1200 -87.7625 217° Southwest 353 406 10,000 -300 Level Chicago Center
02:01PM 42.0667 -87.7833 196° South 294 338 9,500 -960 Descending Chicago TRACON
02:02PM 42.0000 -87.8000 191° South 298 343 8,600 -1,020 Descending Chicago TRACON
02:03PM 41.9167 -87.8167 188° South 258 297 7,500 -1,200 Descending Chicago TRACON
02:04PM 41.8667 -87.8667 217° Southwest 212 244 6,000 -1,260 Descending Chicago TRACON
02:05PM 41.8522 -87.8789 212° Southwest 227 261 5,700 -1,320 Descending Chicago Center
02:06PM 41.7983 -87.9333 217° Southwest 211 243 4,200 -840 Descending Chicago Center
02:07PM 41.7589 -87.9853 224° Southwest 204 235 4,000 -120 Descending Chicago Center
02:08PM 41.7894 -88.0486 303° West 207 238 4,000 -300 Level Chicago Center
02:09PM 41.8353 -88.0406 North 199 229 3,400 -660 Descending Chicago Center
02:10PM 41.8744 -87.9925 42° Northeast 194 223 2,700 -840 Descending Chicago Center
02:10PM 41.9000 -87.9667 37° Northeast 183 211 2,300 -900 Descending Chicago TRACON
02:11PM 41.9167 -87.9333 56° Northeast 142 163 1,600 -840 Descending Chicago TRACON
02:12PM 41.9500 -87.9000 37° Northeast 135 155 800 -840 Descending Chicago TRACON
02:14PM 41.9667 -87.9000 11° North  Level FlightAware Approximate